Time;durP1;ratioP1;P1;durP2;ratioP2;P2;SDS_P1;SDS_P2;PMS_P1;PMS_P2;Temp;Humidity;BMP_temperature;BMP_pressure;BME280_temperature;BME280_humidity;BME280_pressure;Samples;Min_cycle;Max_cycle;Signal;HPM_P1;HPM_P2
2022/06/06 00:01:34;;;;;;;11.85;7.05;;;;;;;15.02;100.00;100803.97;5065169;28;20492;-75
2022/06/06 00:04:00;;;;;;;13.63;8.10;;;;;;;14.87;100.00;100779.22;5048758;28;20116;-76
2022/06/06 00:06:25;;;;;;;10.80;7.43;;;;;;;14.96;100.00;100804.69;5065516;28;20021;-76
2022/06/06 00:08:51;;;;;;;10.27;7.57;;;;;;;15.01;100.00;100797.03;5049431;28;20492;-76
2022/06/06 00:11:17;;;;;;;11.50;8.45;;;;;;;14.98;100.00;100795.56;5066679;28;20028;-76
2022/06/06 00:13:45;;;;;;;14.27;7.68;;;;;;;14.92;100.00;100782.16;5066381;28;20025;-76
2022/06/06 00:16:11;;;;;;;12.38;7.20;;;;;;;14.95;100.00;100774.66;5066773;28;20036;-76
2022/06/06 00:18:36;;;;;;;13.55;8.02;;;;;;;15.12;100.00;100799.25;5065535;28;20041;-76
2022/06/06 00:21:06;;;;;;;12.30;7.63;;;;;;;15.13;100.00;100798.22;5066213;28;20032;-76
2022/06/06 00:23:31;;;;;;;13.13;8.13;;;;;;;15.17;100.00;100791.53;5065155;28;20361;-76
2022/06/06 00:25:57;;;;;;;9.93;6.80;;;;;;;15.16;100.00;100779.28;5066929;28;20115;-76
2022/06/06 00:28:23;;;;;;;10.65;7.40;;;;;;;15.20;100.00;100777.91;5066178;28;20036;-77
2022/06/06 00:30:54;;;;;;;11.80;7.63;;;;;;;15.18;100.00;100771.94;5066253;28;20028;-77
2022/06/06 00:36:03;;;;;;;11.23;8.25;;;;;;;15.08;100.00;100771.38;5063587;28;20126;-77
2022/06/06 00:38:29;;;;;;;10.80;7.78;;;;;;;14.99;100.00;100752.03;5065360;28;20507;-77
2022/06/06 00:40:54;;;;;;;13.77;7.90;;;;;;;14.99;100.00;100759.19;5065149;28;20033;-77
2022/06/06 00:43:20;;;;;;;12.93;7.97;;;;;;;15.04;100.00;100748.81;5047534;28;20067;-77
2022/06/06 00:45:50;;;;;;;10.68;7.88;;;;;;;15.12;100.00;100770.00;5048382;28;20099;-77
2022/06/06 00:48:29;;;;;;;11.43;7.55;;;;;;;15.00;100.00;100751.03;5070177;28;20404;-77
2022/06/06 00:51:08;;;;;;;16.00;10.05;;;;;;;14.92;100.00;100766.22;5064517;28;20027;-77
2022/06/06 00:53:58;;;;;;;12.15;8.13;;;;;;;14.84;100.00;100763.63;5045015;28;20029;-77
2022/06/06 00:56:33;;;;;;;13.40;7.68;;;;;;;14.93;100.00;100779.31;5045598;28;20057;-77
2022/06/06 00:59:03;;;;;;;9.38;7.15;;;;;;;14.81;100.00;100754.19;5045985;28;20468;-77
2022/06/06 01:01:28;;;;;;;10.68;7.45;;;;;;;14.96;100.00;100773.66;5046044;28;20033;-77
2022/06/06 01:04:04;;;;;;;11.15;7.40;;;;;;;14.96;100.00;100771.00;5011742;28;20113;-77
2022/06/06 01:06:34;;;;;;;11.90;7.97;;;;;;;14.87;100.00;100766.75;5018805;28;20021;-77
2022/06/06 01:09:00;;;;;;;11.10;7.50;;;;;;;14.79;100.00;100770.31;5043830;28;20025;-77
2022/06/06 01:11:26;;;;;;;13.57;9.18;;;;;;;14.78;100.00;100768.66;5046982;28;20035;-77
2022/06/06 01:13:54;;;;;;;12.27;8.98;;;;;;;14.64;100.00;100753.50;5046792;28;20079;-77
2022/06/06 01:16:41;;;;;;;13.98;9.65;;;;;;;14.62;100.00;100755.53;5028620;28;20029;-77
2022/06/06 01:19:37;;;;;;;19.52;11.32;;;;;;;14.73;100.00;100765.72;5045549;28;20028;-77
2022/06/06 01:22:27;;;;;;;17.15;11.82;;;;;;;14.69;100.00;100761.75;5045781;28;20017;-77
2022/06/06 01:25:26;;;;;;;18.05;10.77;;;;;;;14.70;100.00;100763.44;5043456;28;20029;-77
2022/06/06 01:27:57;;;;;;;19.90;10.43;;;;;;;14.74;100.00;100764.72;5046052;28;20023;-77
2022/06/06 01:30:27;;;;;;;22.70;12.45;;;;;;;14.52;100.00;100734.47;5028322;28;20040;-77
2022/06/06 01:32:56;;;;;;;17.08;11.90;;;;;;;14.61;100.00;100761.81;5028357;28;20053;-77
2022/06/06 01:35:33;;;;;;;17.65;12.48;;;;;;;14.47;100.00;100751.97;5045637;28;20021;-77
2022/06/06 01:37:58;;;;;;;21.42;13.27;;;;;;;14.34;100.00;100748.06;5027551;28;20013;-77
2022/06/06 01:40:28;;;;;;;17.67;11.73;;;;;;;14.23;100.00;100723.75;5012736;28;20448;-77
2022/06/06 01:43:02;;;;;;;18.08;12.20;;;;;;;14.43;100.00;100764.75;5050050;28;20139;-78
2022/06/06 01:45:30;;;;;;;18.65;12.18;;;;;;;14.44;100.00;100762.91;5030501;28;20029;-77
2022/06/06 01:48:08;;;;;;;18.20;12.32;;;;;;;14.42;100.00;100751.69;5049482;28;20021;-77
2022/06/06 01:50:36;;;;;;;18.70;12.73;;;;;;;14.38;100.00;100745.88;5047652;28;20465;-77
2022/06/06 01:53:06;;;;;;;17.00;11.05;;;;;;;14.43;100.00;100748.81;5063362;28;20060;-78
2022/06/06 01:55:33;;;;;;;22.88;13.90;;;;;;;14.38;100.00;100738.72;5069744;28;20059;-78
2022/06/06 01:58:10;;;;;;;18.70;10.20;;;;;;;14.47;100.00;100746.66;5052213;28;20132;-79
2022/06/06 02:00:37;;;;;;;16.77;11.07;;;;;;;14.54;100.00;100752.88;5068326;28;20496;-78
2022/06/06 02:03:03;;;;;;;16.17;10.45;;;;;;;14.38;100.00;100744.03;5070400;28;20082;-78
2022/06/06 02:05:28;;;;;;;20.27;11.75;;;;;;;14.29;100.00;100749.59;5069099;28;20036;-78
2022/06/06 02:07:55;;;;;;;19.27;10.50;;;;;;;14.28;100.00;100753.25;5068078;28;20481;-78
2022/06/06 02:10:21;;;;;;;18.15;10.13;;;;;;;14.20;100.00;100736.38;5069372;28;20032;-78
2022/06/06 02:12:47;;;;;;;18.67;10.05;;;;;;;14.33;100.00;100759.69;5067569;28;20025;-78
2022/06/06 02:15:16;;;;;;;16.48;9.60;;;;;;;14.34;100.00;100761.31;5068489;28;20405;-76
2022/06/06 02:17:41;;;;;;;17.02;9.25;;;;;;;14.32;100.00;100760.69;5064825;28;20209;-77
2022/06/06 02:20:08;;;;;;;13.68;8.35;;;;;;;14.18;100.00;100758.81;5068606;28;20480;-77
2022/06/06 02:22:33;;;;;;;15.95;7.43;;;;;;;14.26;100.00;100763.22;5069278;28;20020;-77
2022/06/06 02:24:59;;;;;;;11.77;6.90;;;;;;;14.24;100.00;100773.19;5068677;28;20074;-76
2022/06/06 02:27:25;;;;;;;13.65;7.25;;;;;;;14.11;100.00;100763.13;5068221;28;20496;-77
2022/06/06 02:29:50;;;;;;;13.50;7.30;;;;;;;14.13;100.00;100769.94;5051251;28;20025;-77
2022/06/06 02:32:16;;;;;;;12.77;7.00;;;;;;;14.19;100.00;100785.16;5069392;28;20095;-77
2022/06/06 02:34:41;;;;;;;13.48;6.95;;;;;;;14.20;100.00;100791.31;5068569;28;20119;-78
2022/06/06 02:37:07;;;;;;;15.27;7.15;;;;;;;14.13;100.00;100788.53;5084013;28;20052;-78
2022/06/06 02:39:32;;;;;;;12.65;6.90;;;;;;;14.09;100.00;100783.72;5034944;28;20044;-78
2022/06/06 02:41:58;;;;;;;9.43;5.53;;;;;;;14.10;100.00;100810.09;5066125;28;20249;-78
2022/06/06 02:44:24;;;;;;;11.60;6.32;;;;;;;13.99;100.00;100797.22;5068732;28;20090;-78
2022/06/06 02:46:49;;;;;;;8.05;5.03;;;;;;;14.03;100.00;100818.94;5064778;28;20484;-77
2022/06/06 02:49:15;;;;;;;12.80;5.72;;;;;;;13.79;100.00;100794.97;5050634;28;20036;-77
2022/06/06 02:51:41;;;;;;;7.68;4.70;;;;;;;13.87;100.00;100810.03;5067288;28;20052;-78
2022/06/06 02:54:06;;;;;;;11.02;4.32;;;;;;;13.87;100.00;100804.75;5050717;28;20031;-77
2022/06/06 02:56:32;;;;;;;6.90;4.63;;;;;;;13.89;100.00;100823.97;5033840;28;20481;-78
2022/06/06 02:59:02;;;;;;;9.48;5.30;;;;;;;13.85;100.00;100827.09;5068823;28;20016;-77
2022/06/06 03:01:28;;;;;;;8.82;4.53;;;;;;;13.62;100.00;100792.56;5067064;28;20039;-77
2022/06/06 03:03:53;;;;;;;9.07;5.30;;;;;;;13.76;100.00;100824.50;5051194;28;20025;-77
2022/06/06 03:06:37;;;;;;;10.68;5.15;;;;;;;13.73;100.00;100816.06;5066754;28;20044;-77
2022/06/06 03:09:09;;;;;;;8.82;4.65;;;;;;;13.79;100.00;100847.22;5057527;28;20941;-77
2022/06/06 03:11:49;;;;;;;10.38;4.63;;;;;;;13.68;100.00;100832.50;5066513;28;20396;-78
2022/06/06 03:14:33;;;;;;;6.18;3.50;;;;;;;13.63;100.00;100812.78;5066642;28;20031;-78
2022/06/06 03:23:14;;;;;;;5.68;3.00;;;;;;;13.54;100.00;100823.44;5068008;28;20138;-77
2022/06/06 03:25:49;;;;;;;6.43;4.00;;;;;;;13.73;100.00;100847.88;5068328;28;20115;-77
2022/06/06 03:28:43;;;;;;;7.15;3.85;;;;;;;13.77;100.00;100862.47;5068742;28;20469;-77
2022/06/06 03:31:32;;;;;;;5.82;4.20;;;;;;;13.68;100.00;100847.59;5025112;28;20025;-77
2022/06/06 03:34:14;;;;;;;6.43;4.25;;;;;;;13.71;100.00;100871.09;5025285;28;20493;-77
2022/06/06 03:36:44;;;;;;;10.45;5.20;;;;;;;13.45;100.00;100850.94;5024079;28;20048;-77
2022/06/06 03:39:31;;;;;;;9.93;5.50;;;;;;;13.58;100.00;100880.41;5008586;28;20052;-77
2022/06/06 03:42:15;;;;;;;7.15;4.75;;;;;;;13.55;100.00;100880.75;5024897;28;20064;-78
2022/06/06 03:44:48;;;;;;;7.10;4.93;;;;;;;13.57;100.00;100884.06;5023056;28;20033;-77
2022/06/06 03:47:39;;;;;;;8.73;4.53;;;;;;;13.59;100.00;100875.94;5023959;28;20033;-78
2022/06/06 03:50:07;;;;;;;;;;;;;;;13.62;100.00;100875.59;4986778;28;20091;-77
2022/06/06 03:52:43;;;;;;;5.85;4.60;;;;;;;13.60;100.00;100876.75;5024974;28;20269;-77
2022/06/06 03:55:15;;;;;;;7.78;5.10;;;;;;;13.55;100.00;100874.63;5025093;28;20099;-77
2022/06/06 03:57:42;;;;;;;8.90;5.28;;;;;;;13.38;100.00;100881.75;5025159;28;20052;-77
2022/06/06 04:00:12;;;;;;;9.80;5.45;;;;;;;13.42;100.00;100874.31;5024681;28;20082;-77
2022/06/06 04:02:39;;;;;;;8.38;4.32;;;;;;;13.51;100.00;100873.31;5025029;28;20458;-77
2022/06/06 04:05:08;;;;;;;9.05;5.13;;;;;;;13.55;100.00;100879.94;5024216;28;20091;-77
2022/06/06 04:07:34;;;;;;;12.63;5.55;;;;;;;13.50;100.00;100877.78;5045446;28;20099;-77
2022/06/06 04:10:01;;;;;;;8.27;6.13;;;;;;;13.56;100.00;100886.88;5066367;28;20081;-78
2022/06/06 04:12:42;;;;;;;5.95;5.25;;;;;;;13.58;100.00;100883.03;5068108;28;20036;-77
2022/06/06 04:15:08;;;;;;;8.32;5.55;;;;;;;13.58;100.00;100891.00;5056976;28;20025;-77
2022/06/06 04:17:49;;;;;;;8.15;5.45;;;;;;;13.50;100.00;100892.84;5067907;28;20024;-77
2022/06/06 04:20:36;;;;;;;6.18;5.40;;;;;;;13.41;100.00;100868.16;5066332;28;20021;-77
2022/06/06 04:23:13;;;;;;;10.65;6.13;;;;;;;13.43;100.00;100898.00;5066810;28;20016;-77
2022/06/06 04:25:57;;;;;;;8.15;5.90;;;;;;;13.40;100.00;100887.72;5066285;28;20017;-77
2022/06/06 04:28:35;;;;;;;7.10;4.93;;;;;;;13.52;100.00;100907.63;5082570;28;20595;-76
2022/06/06 04:31:13;;;;;;;7.88;6.00;;;;;;;13.50;100.00;100893.69;5066066;28;20029;-77
2022/06/06 04:33:56;;;;;;;11.10;6.25;;;;;;;13.60;100.00;100903.28;5081536;28;20031;-77
2022/06/06 04:36:33;;;;;;;9.25;5.78;;;;;;;13.56;100.00;100885.03;5065595;28;20028;-77
2022/06/06 04:39:31;;;;;;;7.93;5.65;;;;;;;13.59;100.00;100907.75;5063585;28;20119;-77
2022/06/06 04:42:23;;;;;;;10.15;5.22;;;;;;;13.63;100.00;100900.28;5065525;28;20511;-76
2022/06/06 04:44:59;;;;;;;8.73;4.70;;;;;;;13.48;100.00;100889.53;5058245;28;20021;-77
2022/06/06 04:47:24;;;;;;;8.93;5.32;;;;;;;13.57;100.00;100905.28;5080468;28;20029;-77
2022/06/06 04:49:51;;;;;;;7.63;5.22;;;;;;;13.53;100.00;100881.91;5066952;28;20171;-77
2022/06/06 04:52:19;;;;;;;8.63;5.78;;;;;;;13.48;100.00;100895.69;5082101;28;20485;-78
2022/06/06 04:54:46;;;;;;;9.65;5.22;;;;;;;13.35;100.00;100871.50;5067382;28;20066;-77
2022/06/06 04:57:13;;;;;;;6.57;4.80;;;;;;;13.55;100.00;100895.84;5066355;28;20544;-77
2022/06/06 04:59:40;;;;;;;7.68;5.03;;;;;;;13.65;100.00;100909.72;5067479;28;20464;-76
2022/06/06 05:02:06;;;;;;;7.30;4.78;;;;;;;13.63;100.00;100910.88;5067197;28;20123;-77
2022/06/06 05:04:32;;;;;;;8.68;5.40;;;;;;;13.56;100.00;100908.91;5067288;28;20020;-77
2022/06/06 05:07:09;;;;;;;9.52;5.10;;;;;;;13.36;100.00;100897.00;5065685;28;20082;-77
2022/06/06 05:09:47;;;;;;;7.88;4.82;;;;;;;13.49;100.00;100901.81;5066856;28;20024;-77
2022/06/06 05:12:15;;;;;;;11.45;5.57;;;;;;;13.44;100.00;100914.75;5066598;28;20515;-77
2022/06/06 05:15:23;;;;;;;7.03;4.60;;;;;;;13.37;100.00;100909.28;5066619;28;20111;-76
2022/06/06 05:17:48;;;;;;;8.02;5.47;;;;;;;13.35;100.00;100906.78;5039404;28;20442;-76
2022/06/06 05:20:51;;;;;;;8.43;4.53;;;;;;;13.53;100.00;100909.25;5070932;28;20024;-78
2022/06/06 05:23:35;;;;;;;5.90;4.68;;;;;;;13.56;100.00;100908.09;5070054;28;20033;-77
2022/06/06 05:26:31;;;;;;;6.55;4.45;;;;;;;13.47;100.00;100909.91;5060904;28;20313;-77
2022/06/06 05:29:24;;;;;;;6.25;4.85;;;;;;;13.43;100.00;100924.50;5069521;28;20059;-77
2022/06/06 05:32:10;;;;;;;5.60;4.32;;;;;;;13.33;100.00;100931.81;5069838;28;20021;-77
2022/06/06 05:35:00;;;;;;;5.20;3.92;;;;;;;13.15;100.00;100918.66;5068665;28;20115;-77
2022/06/06 05:37:35;;;;;;;5.43;3.53;;;;;;;13.13;100.00;100940.06;5068489;28;20034;-77
2022/06/06 05:40:39;;;;;;;5.93;3.60;;;;;;;13.15;100.00;100947.81;5060023;28;20029;-77
2022/06/06 05:43:04;;;;;;;5.18;3.55;;;;;;;12.99;100.00;100951.28;5069603;28;20558;-76
2022/06/06 05:45:49;;;;;;;8.02;4.13;;;;;;;12.98;100.00;100952.28;5068698;28;20407;-77
2022/06/06 05:48:34;;;;;;;7.05;4.35;;;;;;;13.00;100.00;100962.69;5067793;28;20035;-77
2022/06/06 05:51:33;;;;;;;7.55;3.60;;;;;;;13.09;100.00;100962.56;5068632;28;20415;-77
2022/06/06 05:54:23;;;;;;;5.32;3.13;;;;;;;12.89;100.00;100942.66;5049943;28;20108;-77
2022/06/06 05:57:17;;;;;;;5.63;4.13;;;;;;;13.05;100.00;100963.06;5048455;28;20496;-77
2022/06/06 06:00:25;;;;;;;6.20;4.10;;;;;;;13.00;100.00;100960.91;5047642;28;20423;-77
2022/06/06 06:03:12;;;;;;;5.50;3.33;;;;;;;12.93;100.00;100965.19;5039099;28;20072;-77
2022/06/06 06:05:47;;;;;;;6.90;3.75;;;;;;;13.02;100.00;100971.31;5046671;28;20029;-77
2022/06/06 06:08:42;;;;;;;7.38;3.90;;;;;;;12.96;100.00;100980.75;5047741;28;20107;-77
2022/06/06 06:11:21;;;;;;;7.13;4.13;;;;;;;12.94;100.00;100964.19;5047857;28;20070;-77
2022/06/06 06:13:49;;;;;;;6.55;3.97;;;;;;;13.11;100.00;100987.09;5049001;28;20159;-76
2022/06/06 06:16:16;;;;;;;10.05;5.38;;;;;;;13.07;100.00;100988.41;5048764;28;20017;-77
2022/06/06 06:19:06;;;;;;;11.85;5.50;;;;;;;13.15;100.00;100996.38;5049549;28;20054;-77
2022/06/06 06:21:40;;;;;;;10.20;5.57;;;;;;;13.01;100.00;100978.44;5047923;28;20021;-76
2022/06/06 06:24:14;;;;;;;11.50;5.40;;;;;;;13.07;100.00;101004.31;5032043;28;20053;-76
2022/06/06 06:26:40;;;;;;;9.43;5.75;;;;;;;12.94;100.00;101004.75;5031387;28;20095;-77
2022/06/06 06:29:09;;;;;;;11.20;5.82;;;;;;;12.85;100.00;101003.09;5014922;28;20044;-77
2022/06/06 06:32:08;;;;;;;8.82;4.93;;;;;;;13.00;100.00;101016.53;5049259;28;20060;-77
2022/06/06 06:34:51;;;;;;;7.72;4.80;;;;;;;12.88;100.00;101004.56;5048460;28;20460;-77
2022/06/06 06:37:51;;;;;;;7.97;4.38;;;;;;;12.90;100.00;101007.91;5047378;28;20029;-77
2022/06/06 06:40:25;;;;;;;8.65;5.07;;;;;;;12.80;100.00;101018.59;5047266;28;20497;-77
2022/06/06 06:43:24;;;;;;;6.78;4.22;;;;;;;12.68;100.00;101036.63;5049207;28;20017;-77
2022/06/06 06:45:54;;;;;;;8.18;3.78;;;;;;;12.68;100.00;101017.25;5047204;28;20068;-77
2022/06/06 06:48:42;;;;;;;7.05;4.53;;;;;;;12.83;100.00;101033.38;5048936;28;20444;-77
2022/06/06 06:51:15;;;;;;;8.80;5.10;;;;;;;12.96;100.00;101031.09;5033446;28;20080;-77
2022/06/06 06:53:57;;;;;;;9.82;4.68;;;;;;;12.88;100.00;101023.94;5069098;28;20048;-77
2022/06/06 06:56:47;;;;;;;10.15;5.10;;;;;;;12.97;100.00;101040.69;5069016;28;20440;-78
2022/06/06 06:59:46;;;;;;;7.65;4.15;;;;;;;12.89;100.00;101044.16;5068406;28;20094;-77
2022/06/06 07:11:03;;;;;;;7.00;4.30;;;;;;;13.33;100.00;101036.00;5066204;28;20043;-77
2022/06/06 07:14:10;;;;;;;5.10;4.07;;;;;;;13.43;100.00;101030.53;5067914;28;20035;-77
2022/06/06 07:16:38;;;;;;;7.88;3.33;;;;;;;13.58;100.00;101043.97;5025001;28;20095;-77
2022/06/06 07:19:10;;;;;;;6.85;3.08;;;;;;;13.86;100.00;101043.66;5024845;28;20037;-77
2022/06/06 07:21:38;;;;;;;7.07;3.13;;;;;;;14.09;100.00;101047.31;5008429;28;20586;-77
2022/06/06 07:24:08;;;;;;;5.43;2.42;;;;;;;14.26;100.00;101029.50;5025451;28;20040;-77
2022/06/06 07:26:37;;;;;;;3.10;2.33;;;;;;;14.33;100.00;101045.59;5025431;28;20104;-77
2022/06/06 07:29:07;;;;;;;5.32;3.30;;;;;;;14.23;100.00;101026.38;5022057;28;20263;-77
2022/06/06 07:31:56;;;;;;;2.90;2.00;;;;;;;14.30;100.00;101038.78;4981836;28;20169;-77
2022/06/06 07:34:52;;;;;;;4.15;2.55;;;;;;;14.45;100.00;101044.22;5025319;28;20518;-77
2022/06/06 07:37:47;;;;;;;2.78;1.90;;;;;;;14.11;100.00;101040.00;5009201;28;20566;-77
2022/06/06 07:40:24;;;;;;;4.43;2.40;;;;;;;14.22;100.00;101060.06;5024784;28;20037;-77
2022/06/06 07:43:04;;;;;;;4.88;2.40;;;;;;;13.99;100.00;101052.75;5024992;28;20080;-77
2022/06/06 07:45:41;;;;;;;6.13;2.30;;;;;;;14.09;100.00;101046.44;5025261;28;20029;-77
2022/06/06 07:48:39;;;;;;;5.43;2.40;;;;;;;13.88;100.00;101023.09;5058777;28;20300;-77
2022/06/06 07:51:36;;;;;;;3.78;2.42;;;;;;;14.06;100.00;101055.56;5065209;28;20030;-77
2022/06/06 07:54:13;;;;;;;3.83;2.40;;;;;;;13.92;100.00;101050.97;5047653;28;20070;-77
2022/06/06 07:56:50;;;;;;;4.63;2.28;;;;;;;14.09;100.00;101057.91;5026839;28;20083;-76
2022/06/06 07:59:31;;;;;;;4.53;2.30;;;;;;;14.02;100.00;101061.38;5045262;28;20025;-77
2022/06/06 08:02:25;;;;;;;5.63;2.53;;;;;;;13.81;100.00;101038.88;5047151;28;20032;-77
2022/06/06 08:05:12;;;;;;;5.45;2.70;;;;;;;13.82;100.00;101059.06;5046017;28;20025;-77
2022/06/06 08:07:47;;;;;;;3.80;2.17;;;;;;;13.83;100.00;101060.75;5046972;28;20028;-77
2022/06/06 08:10:22;;;;;;;4.07;2.40;;;;;;;13.85;100.00;101036.69;5029182;28;20477;-77
2022/06/06 08:13:02;;;;;;;3.97;2.58;;;;;;;14.22;100.00;101056.53;5046335;28;20112;-77
2022/06/06 08:15:55;;;;;;;5.60;2.47;;;;;;;14.42;100.00;101062.34;5012687;28;20424;-77
2022/06/06 08:18:48;;;;;;;5.78;2.10;;;;;;;14.78;100.00;101049.44;5047897;28;20028;-77
2022/06/06 08:21:33;;;;;;;2.60;1.67;;;;;;;15.84;97.67;101048.81;5028675;28;20028;-76
2022/06/06 08:24:01;;;;;;;3.15;2.10;;;;;;;16.56;94.59;101035.94;5014539;28;20103;-77
2022/06/06 08:26:27;;;;;;;3.45;2.17;;;;;;;16.47;88.29;101047.69;5045077;28;20556;-77
2022/06/06 08:28:54;;;;;;;3.55;1.80;;;;;;;16.06;89.36;101054.25;5047476;28;20056;-77
2022/06/06 08:31:20;;;;;;;6.13;1.80;;;;;;;16.12;89.37;101055.38;5028557;28;20112;-77
2022/06/06 08:33:46;;;;;;;3.00;2.00;;;;;;;15.91;90.45;101054.22;5047171;28;20215;-77
2022/06/06 08:36:29;;;;;;;5.40;1.80;;;;;;;16.04;90.36;101054.44;5044392;28;20021;-77
2022/06/06 08:39:30;;;;;;;5.45;2.25;;;;;;;15.89;90.65;101045.59;5016149;28;20017;-77
2022/06/06 08:42:08;;;;;;;5.25;2.17;;;;;;;15.56;90.75;101051.16;5016979;28;20037;-77
2022/06/06 08:44:51;;;;;;;2.88;1.55;;;;;;;15.54;92.78;101052.34;5045756;28;20348;-77
2022/06/06 08:47:50;;;;;;;4.75;2.38;;;;;;;15.80;94.49;101052.00;5027387;28;20060;-77
2022/06/06 08:50:49;;;;;;;6.30;2.47;;;;;;;16.54;92.36;101045.94;5044811;28;20285;-77
2022/06/06 08:53:40;;;;;;;5.35;2.50;;;;;;;17.06;87.84;101050.31;5052588;28;20110;-77
2022/06/06 08:56:22;;;;;;;5.97;2.33;;;;;;;17.44;84.97;101055.44;5048609;28;20043;-77
2022/06/06 08:58:56;;;;;;;5.80;2.83;;;;;;;17.89;83.60;101037.41;5050210;28;20017;-77
2022/06/06 09:01:27;;;;;;;4.80;2.45;;;;;;;17.79;84.76;101042.19;5050313;28;20436;-77
2022/06/06 09:04:23;;;;;;;4.53;3.28;;;;;;;18.21;82.62;101048.53;5032887;28;20115;-77
2022/06/06 09:07:08;;;;;;;4.82;2.38;;;;;;;17.93;83.46;101049.34;5033271;28;20087;-78
2022/06/06 09:09:36;;;;;;;2.75;1.80;;;;;;;17.77;81.78;101063.78;5032390;28;20021;-77
2022/06/06 09:12:26;;;;;;;5.78;2.20;;;;;;;17.27;85.43;101061.03;5031900;28;20633;-77
2022/06/06 09:15:19;;;;;;;7.03;2.13;;;;;;;16.94;86.61;101065.13;5050951;28;20029;-77
2022/06/06 09:18:21;;;;;;;4.30;1.88;;;;;;;16.91;86.44;101073.53;5032820;28;20040;-77
2022/06/06 09:21:25;;;;;;;2.47;1.65;;;;;;;17.46;83.75;101058.75;5050040;28;20120;-77
2022/06/06 09:23:56;;;;;;;4.05;1.90;;;;;;;16.82;84.03;101062.94;4998020;28;20037;-77
2022/06/06 09:26:39;;;;;;;3.20;2.20;;;;;;;16.84;85.39;101076.09;5050550;28;20032;-77
2022/06/06 09:29:22;;;;;;;4.32;2.03;;;;;;;17.14;84.48;101071.56;5050948;28;20032;-77
2022/06/06 09:32:06;;;;;;;5.40;2.13;;;;;;;17.77;83.29;101071.78;5031103;28;20036;-77
2022/06/06 09:35:10;;;;;;;4.50;2.28;;;;;;;17.24;82.85;101077.38;5032395;28;20055;-77
2022/06/06 09:37:49;;;;;;;5.78;2.45;;;;;;;17.00;85.32;101070.53;5032269;28;20029;-77
2022/06/06 09:40:18;;;;;;;5.40;2.00;;;;;;;17.16;86.21;101060.66;5050716;28;20021;-77
2022/06/06 09:42:53;;;;;;;4.22;1.90;;;;;;;18.59;82.13;101050.78;5049516;28;20021;-77
2022/06/06 09:45:48;;;;;;;4.25;1.90;;;;;;;19.38;76.05;101042.25;5029092;28;20447;-78
2022/06/06 09:48:55;;;;;;;2.80;1.85;;;;;;;19.97;74.60;101045.19;5049428;28;20029;-77
2022/06/06 09:51:33;;;;;;;4.13;2.00;;;;;;;21.03;72.33;101063.69;5046136;28;20233;-78
2022/06/06 10:00:17;;;;;;;3.35;2.08;;;;;;;20.63;70.66;101055.00;5048927;28;20031;-77
2022/06/06 10:02:48;;;;;;;5.47;2.15;;;;;;;21.13;69.05;101065.91;5045031;28;20514;-77
2022/06/06 10:05:38;;;;;;;5.72;1.90;;;;;;;19.87;70.90;101045.59;5048285;28;20059;-78
2022/06/06 10:08:23;;;;;;;3.53;2.45;;;;;;;18.90;76.49;101048.50;5044892;28;20061;-77
2022/06/06 10:11:04;;;;;;;4.88;2.30;;;;;;;19.65;74.19;101043.09;5047971;28;20032;-78
2022/06/06 10:14:05;;;;;;;3.70;1.55;;;;;;;19.85;71.70;101034.28;5046966;28;20029;-77
2022/06/06 10:16:49;;;;;;;5.10;1.70;;;;;;;19.86;72.18;101041.25;5037178;28;20033;-78
2022/06/06 10:19:53;;;;;;;3.22;1.38;;;;;;;19.30;71.43;101027.19;5048742;28;20025;-78
2022/06/06 10:22:38;;;;;;;3.63;1.50;;;;;;;19.39;68.84;101016.31;5018933;28;20020;-77
2022/06/06 10:25:22;;;;;;;3.35;1.60;;;;;;;19.60;69.29;101034.03;5046510;28;20021;-77
2022/06/06 10:28:09;;;;;;;2.75;1.40;;;;;;;20.04;67.63;101020.03;5021564;28;20025;-77
2022/06/06 10:30:58;;;;;;;4.40;1.10;;;;;;;19.08;69.70;101025.72;5046494;28;20388;-77
2022/06/06 10:33:33;;;;;;;4.82;1.98;;;;;;;19.03;69.90;101025.47;5026864;28;20055;-77
2022/06/06 10:36:27;;;;;;;3.92;1.10;;;;;;;19.47;69.05;101026.84;5046870;28;20032;-77
2022/06/06 10:39:15;;;;;;;4.32;1.40;;;;;;;20.09;66.61;101016.72;5046296;28;20036;-77
2022/06/06 10:41:53;;;;;;;3.63;1.30;;;;;;;20.53;67.59;101039.31;5047196;28;20353;-77
2022/06/06 10:44:36;;;;;;;4.18;1.27;;;;;;;20.22;65.07;101042.69;5021593;28;20052;-77
2022/06/06 10:47:39;;;;;;;2.88;1.30;;;;;;;19.41;68.80;101047.19;5029636;28;20107;-77
2022/06/06 10:54:11;;;;;;;10.43;1.27;;;;;;;18.80;66.61;101050.72;5007648;28;1084609;-77
2022/06/06 10:56:57;;;;;;;6.03;1.30;;;;;;;19.20;70.00;101039.31;5047060;28;20485;-77
2022/06/06 10:59:36;;;;;;;5.03;0.95;;;;;;;20.00;67.78;101045.59;5049056;28;20103;-77
2022/06/06 11:02:13;;;;;;;3.72;1.20;;;;;;;18.83;67.33;101058.31;5048220;28;20020;-77
2022/06/06 11:05:15;;;;;;;5.13;1.30;;;;;;;18.84;69.24;101068.03;5048867;28;20035;-77
2022/06/06 11:07:57;;;;;;;3.25;1.10;;;;;;;19.16;68.79;101065.66;5019184;28;20017;-77
2022/06/06 11:10:43;;;;;;;4.75;0.93;;;;;;;18.35;69.70;101058.25;5048752;28;20472;-77
2022/06/06 11:13:40;;;;;;;5.00;0.90;;;;;;;19.49;67.78;101048.88;5047635;28;20056;-77
2022/06/06 11:16:43;;;;;;;2.20;0.80;;;;;;;20.50;64.49;101051.28;5047793;28;20029;-77
2022/06/06 11:19:36;;;;;;;7.32;1.23;;;;;;;19.06;66.96;101019.75;5048338;28;20100;-77
2022/06/06 11:22:36;;;;;;;4.30;1.17;;;;;;;18.42;69.80;101043.09;5047528;28;20103;-77
2022/06/06 11:25:21;;;;;;;5.20;1.13;;;;;;;18.31;71.13;101035.63;5048334;28;20127;-77
2022/06/06 11:28:15;;;;;;;3.22;0.80;;;;;;;19.65;69.06;101048.44;5048471;28;20029;-77
2022/06/06 11:31:29;;;;;;;6.13;1.05;;;;;;;20.51;66.42;101058.31;5045662;28;20025;-78
2022/06/06 11:34:31;;;;;;;3.67;1.00;;;;;;;19.05;65.29;101040.34;5030407;28;20056;-77
2022/06/06 11:37:30;;;;;;;2.28;0.80;;;;;;;19.69;66.38;101062.25;5048073;28;20032;-77
2022/06/06 11:40:01;;;;;;;1.95;0.70;;;;;;;18.93;65.74;101057.16;5048165;28;20087;-77
2022/06/06 11:42:48;;;;;;;3.47;0.70;;;;;;;19.13;65.63;101051.88;5045129;28;20477;-77
2022/06/06 11:45:39;;;;;;;4.97;0.93;;;;;;;20.37;62.56;101059.34;5029921;28;20473;-77
2022/06/06 11:48:16;;;;;;;2.60;0.77;;;;;;;19.83;64.14;101057.75;5048362;28;20392;-77
2022/06/06 11:51:03;;;;;;;4.03;1.00;;;;;;;18.95;69.06;101045.22;5047502;28;20096;-77
2022/06/06 11:54:34;;;;;;;3.08;0.90;;;;;;;17.71;71.89;101069.88;5045573;28;20136;-77
2022/06/06 11:57:24;;;;;;;3.25;1.30;;;;;;;16.29;82.70;101074.69;4920575;29;20044;-76
2022/06/06 12:00:04;;;;;;;4.97;1.27;;;;;;;15.46;91.05;101076.34;4914405;29;20028;-78
2022/06/06 12:02:42;;;;;;;5.82;1.90;;;;;;;14.99;92.97;101075.44;4920033;29;20047;-77
2022/06/06 12:05:44;;;;;;;3.75;1.40;;;;;;;15.75;92.67;101067.69;4921940;29;20830;-76
2022/06/06 12:08:25;;;;;;;3.33;1.42;;;;;;;16.03;90.82;101068.78;4909933;29;20059;-76
2022/06/06 12:11:14;;;;;;;2.03;1.30;;;;;;;16.95;89.68;101058.81;4921351;29;20110;-77
2022/06/06 12:13:58;;;;;;;4.90;1.33;;;;;;;18.09;84.61;101064.25;4918624;29;20039;-77
2022/06/06 12:16:31;;;;;;;3.72;1.23;;;;;;;18.15;79.93;101054.63;4921320;29;20036;-76
2022/06/06 12:19:28;;;;;;;2.70;1.17;;;;;;;17.87;77.41;101034.09;4919095;29;20038;-76
2022/06/06 12:22:15;;;;;;;2.25;1.00;;;;;;;17.55;75.57;101062.94;4923284;29;20039;-76
2022/06/06 12:25:00;;;;;;;3.90;1.00;;;;;;;17.04;78.95;101028.34;4919197;29;20028;-76
2022/06/06 12:27:42;;;;;;;3.03;1.17;;;;;;;16.89;78.12;101057.69;4931764;29;20083;-76
2022/06/06 12:30:30;;;;;;;7.22;1.13;;;;;;;16.49;79.69;101061.66;4946779;29;20046;-76
2022/06/06 12:32:55;;;;;;;2.10;1.17;;;;;;;16.32;80.29;101067.16;4985333;28;20456;-77
2022/06/06 12:35:40;;;;;;;3.17;0.95;;;;;;;16.51;80.15;101054.31;5047155;28;20020;-76
2022/06/06 12:38:26;;;;;;;4.85;1.67;;;;;;;16.74;79.47;101059.53;5029391;28;20496;-77
2022/06/06 12:41:18;;;;;;;4.18;1.40;;;;;;;17.21;77.68;101053.78;5029567;28;20128;-77